Time;durP1;ratioP1;P1;durP2;ratioP2;P2;SDS_P1;SDS_P2;PMS_P1;PMS_P2;Temp;Humidity;BMP_temperature;BMP_pressure;BME280_temperature;BME280_humidity;BME280_pressure;Samples;Min_cycle;Max_cycle;Signal;HPM_P1;HPM_P2
2022/08/01 00:00:46;;;;;;;19.20;1.95;;;;;;;;;;4734964;30;20110;-46
2022/08/01 00:03:13;;;;;;;2.20;1.40;;;;;;;;;;4735104;30;20139;-48
2022/08/01 00:05:43;;;;;;;2.67;1.58;;;;;;;;;;4733729;30;20057;-47
2022/08/01 00:08:10;;;;;;;2.47;1.20;;;;;;;;;;4737081;30;20052;-49
2022/08/01 00:10:37;;;;;;;35.30;2.10;;;;;;;;;;4752478;30;20513;-51
2022/08/01 00:13:04;;;;;;;33.10;4.40;;;;;;;;;;4752483;30;20059;-47
2022/08/01 00:15:33;;;;;;;2.10;1.20;;;;;;;;;;4739074;30;20110;-46
2022/08/01 00:18:01;;;;;;;2.72;1.48;;;;;;;;;;4734821;30;20048;-45
2022/08/01 00:20:28;;;;;;;3.25;1.30;;;;;;;;;;4734586;30;20053;-46
2022/08/01 00:22:55;;;;;;;1.70;1.10;;;;;;;;;;4734623;30;20065;-48
2022/08/01 00:25:23;;;;;;;1.92;1.13;;;;;;;;;;4734635;30;20128;-46
2022/08/01 00:28:00;;;;;;;3.28;1.40;;;;;;;;;;4734838;30;20051;-48
2022/08/01 00:30:30;;;;;;;2.53;1.05;;;;;;;;;;4734125;30;20072;-46
2022/08/01 00:32:58;;;;;;;3.05;1.23;;;;;;;;;;4734308;30;20048;-46
2022/08/01 00:35:25;;;;;;;70.05;3.20;;;;;;;;;;4734669;30;20117;-47
2022/08/01 00:37:52;;;;;;;8.48;1.55;;;;;;;;;;4734234;30;20526;-45
2022/08/01 00:40:20;;;;;;;19.85;2.53;;;;;;;;;;4734508;30;20418;-47
2022/08/01 00:42:47;;;;;;;2.92;1.27;;;;;;;;;;4734085;30;20041;-49
2022/08/01 00:45:14;;;;;;;1.92;1.30;;;;;;;;;;4734369;30;20457;-46
2022/08/01 00:47:41;;;;;;;2.53;1.35;;;;;;;;;;4734249;30;20055;-47
2022/08/01 00:50:13;;;;;;;3.33;1.58;;;;;;;;;;4734220;30;20041;-48
2022/08/01 00:52:41;;;;;;;2.67;1.30;;;;;;;;;;4734200;30;20049;-47
2022/08/01 00:55:18;;;;;;;6.38;1.60;;;;;;;;;;4734036;30;20135;-50
2022/08/01 00:57:47;;;;;;;1.80;1.25;;;;;;;;;;4734089;30;20048;-48
2022/08/01 01:00:33;;;;;;;4.40;1.80;;;;;;;;;;4734423;30;20124;-46
2022/08/01 01:03:21;;;;;;;14.20;2.90;;;;;;;;;;4733092;30;20044;-47
2022/08/01 01:06:13;;;;;;;2.28;1.50;;;;;;;;;;4734091;30;20054;-45
2022/08/01 01:08:48;;;;;;;5.55;1.85;;;;;;;;;;4733959;30;20433;-47
2022/08/01 01:11:28;;;;;;;3.38;1.25;;;;;;;;;;4734156;30;20049;-45
2022/08/01 01:14:04;;;;;;;2.58;1.52;;;;;;;;;;4733907;30;20070;-46
2022/08/01 01:16:33;;;;;;;2.58;1.58;;;;;;;;;;4733842;30;20057;-48
2022/08/01 01:19:03;;;;;;;3.97;1.20;;;;;;;;;;4733986;30;20048;-46
2022/08/01 01:21:38;;;;;;;18.50;2.10;;;;;;;;;;4734041;30;20044;-49
2022/08/01 01:24:34;;;;;;;2.33;1.10;;;;;;;;;;4733709;30;20055;-46
2022/08/01 01:27:12;;;;;;;3.60;1.58;;;;;;;;;;4733795;30;20051;-46
2022/08/01 01:29:42;;;;;;;12.13;1.80;;;;;;;;;;4733731;30;20049;-49
2022/08/01 01:32:38;;;;;;;8.45;2.00;;;;;;;;;;4733787;30;20551;-46
2022/08/01 01:35:09;;;;;;;6.63;1.60;;;;;;;;;;4733421;30;20044;-48
2022/08/01 01:37:40;;;;;;;2.17;1.17;;;;;;;;;;4733682;30;20083;-47
2022/08/01 01:40:09;;;;;;;2.67;1.30;;;;;;;;;;4733647;30;20060;-45
2022/08/01 01:42:38;;;;;;;6.32;1.63;;;;;;;;;;4735325;30;20044;-48
2022/08/01 01:45:06;;;;;;;3.83;1.40;;;;;;;;;;4737288;30;20045;-50
2022/08/01 01:47:35;;;;;;;3.00;1.80;;;;;;;;;;4737277;30;20055;-46
2022/08/01 01:50:04;;;;;;;2.13;1.13;;;;;;;;;;4737594;30;20076;-49
2022/08/01 01:52:32;;;;;;;4.78;2.90;;;;;;;;;;4737458;30;20049;-49
2022/08/01 01:55:02;;;;;;;7.65;2.58;;;;;;;;;;4737262;30;20068;-49
2022/08/01 01:57:32;;;;;;;2.20;1.50;;;;;;;;;;4737322;30;20037;-45
2022/08/01 02:00:00;;;;;;;3.22;1.63;;;;;;;;;;4737075;30;20493;-47
2022/08/01 02:02:30;;;;;;;3.15;1.70;;;;;;;;;;4737160;30;20052;-46
2022/08/01 02:04:58;;;;;;;2.90;1.70;;;;;;;;;;4736993;30;20078;-48
2022/08/01 02:07:29;;;;;;;3.28;1.95;;;;;;;;;;4736616;30;20106;-48
2022/08/01 02:09:58;;;;;;;7.13;2.50;;;;;;;;;;4751263;30;20050;-49
2022/08/01 02:12:26;;;;;;;2.53;1.35;;;;;;;;;;4736852;30;20045;-47
2022/08/01 02:14:55;;;;;;;4.40;1.63;;;;;;;;;;4736657;30;20064;-50
2022/08/01 02:17:24;;;;;;;3.10;1.70;;;;;;;;;;4736868;30;20059;-50
2022/08/01 02:19:53;;;;;;;2.97;1.65;;;;;;;;;;4736701;30;20077;-49
2022/08/01 02:22:27;;;;;;;4.68;2.03;;;;;;;;;;4736790;30;20521;-46
2022/08/01 02:24:57;;;;;;;2.85;1.63;;;;;;;;;;4736444;30;20056;-48
2022/08/01 02:27:29;;;;;;;2.10;1.40;;;;;;;;;;4736582;30;20049;-48
2022/08/01 02:30:08;;;;;;;2.70;1.50;;;;;;;;;;4736570;30;20061;-50
2022/08/01 02:32:45;;;;;;;2.97;1.52;;;;;;;;;;4736421;30;20498;-47
2022/08/01 02:35:22;;;;;;;2.65;1.38;;;;;;;;;;4736415;30;20041;-46
2022/08/01 02:37:51;;;;;;;3.15;1.40;;;;;;;;;;4736299;30;20139;-46
2022/08/01 02:40:21;;;;;;;2.58;1.73;;;;;;;;;;4736209;30;20140;-47
2022/08/01 02:42:50;;;;;;;3.95;2.00;;;;;;;;;;4736410;30;20143;-47
2022/08/01 02:45:20;;;;;;;8.20;3.42;;;;;;;;;;4736239;30;20412;-51
2022/08/01 02:47:50;;;;;;;3.95;1.90;;;;;;;;;;4736346;30;20072;-48
2022/08/01 02:50:18;;;;;;;6.78;2.22;;;;;;;;;;4736078;30;20151;-47
2022/08/01 02:52:50;;;;;;;5.60;2.58;;;;;;;;;;4735990;30;20048;-49
2022/08/01 02:55:19;;;;;;;3.72;2.05;;;;;;;;;;4736163;30;20130;-49
2022/08/01 02:57:47;;;;;;;14.02;2.33;;;;;;;;;;4736046;30;20063;-47
2022/08/01 03:00:19;;;;;;;4.13;2.30;;;;;;;;;;4736057;30;20049;-49
2022/08/01 03:02:54;;;;;;;4.03;2.22;;;;;;;;;;4735891;30;20056;-47
2022/08/01 03:05:23;;;;;;;3.88;2.28;;;;;;;;;;4735868;30;20371;-47
2022/08/01 03:07:53;;;;;;;3.03;1.67;;;;;;;;;;4735960;30;20041;-47
2022/08/01 03:10:22;;;;;;;5.15;2.33;;;;;;;;;;4735898;30;20059;-47
2022/08/01 03:12:50;;;;;;;3.10;2.13;;;;;;;;;;4735735;30;20568;-48
2022/08/01 03:15:21;;;;;;;4.60;2.90;;;;;;;;;;4735618;30;20057;-47
2022/08/01 03:17:51;;;;;;;12.15;2.83;;;;;;;;;;4735532;30;20503;-46
2022/08/01 03:20:20;;;;;;;4.95;2.35;;;;;;;;;;4735645;30;20086;-48
2022/08/01 03:22:51;;;;;;;3.10;2.08;;;;;;;;;;4735396;30;20510;-54
2022/08/01 03:25:20;;;;;;;3.70;2.17;;;;;;;;;;4734472;30;20049;-47
2022/08/01 03:27:57;;;;;;;2.63;1.92;;;;;;;;;;4735628;30;20128;-50
2022/08/01 03:30:26;;;;;;;2.70;2.13;;;;;;;;;;4735560;30;20884;-46
2022/08/01 03:32:55;;;;;;;4.22;2.17;;;;;;;;;;4735616;30;20055;-46
2022/08/01 03:35:29;;;;;;;3.22;1.88;;;;;;;;;;4735553;30;20055;-47
2022/08/01 03:37:59;;;;;;;4.78;2.55;;;;;;;;;;4735275;30;20053;-51
2022/08/01 03:40:55;;;;;;;3.03;1.90;;;;;;;;;;4735214;30;20092;-49
2022/08/01 03:43:38;;;;;;;6.28;2.53;;;;;;;;;;4735364;30;20048;-48
2022/08/01 03:46:09;;;;;;;3.17;2.20;;;;;;;;;;4735443;30;20413;-46
2022/08/01 03:48:42;;;;;;;3.70;1.80;;;;;;;;;;4735120;30;20524;-45
2022/08/01 03:51:12;;;;;;;3.42;2.00;;;;;;;;;;4735373;30;20505;-51
2022/08/01 03:53:42;;;;;;;2.80;1.58;;;;;;;;;;4734905;30;20052;-47
2022/08/01 03:56:11;;;;;;;5.47;2.00;;;;;;;;;;4734367;30;20076;-50
2022/08/01 03:58:42;;;;;;;2.30;1.50;;;;;;;;;;4733488;30;20630;-47
2022/08/01 04:01:10;;;;;;;5.65;1.83;;;;;;;;;;4733629;30;20071;-48
2022/08/01 04:03:42;;;;;;;2.50;1.70;;;;;;;;;;4733352;30;20060;-51
2022/08/01 04:06:10;;;;;;;3.45;1.75;;;;;;;;;;4732807;30;20045;-48
2022/08/01 04:08:38;;;;;;;3.90;1.90;;;;;;;;;;4738458;30;20421;-47
2022/08/01 04:11:08;;;;;;;13.90;7.55;;;;;;;;;;4751121;30;20044;-46
2022/08/01 04:13:36;;;;;;;7.55;3.60;;;;;;;;;;4750963;30;20040;-46
2022/08/01 04:16:05;;;;;;;3.97;2.08;;;;;;;;;;4750932;30;20075;-49
2022/08/01 04:18:32;;;;;;;3.13;1.90;;;;;;;;;;4751189;30;20048;-49
2022/08/01 04:20:59;;;;;;;2.50;1.90;;;;;;;;;;4743090;30;20051;-46
2022/08/01 04:23:31;;;;;;;2.58;1.67;;;;;;;;;;4733164;30;20059;-46
2022/08/01 04:26:00;;;;;;;2.40;1.40;;;;;;;;;;4732831;30;20052;-50
2022/08/01 04:28:31;;;;;;;2.05;1.42;;;;;;;;;;4733340;30;20460;-49
2022/08/01 04:30:59;;;;;;;1.80;1.30;;;;;;;;;;4732874;30;20160;-47
2022/08/01 04:33:30;;;;;;;6.68;3.33;;;;;;;;;;4733192;30;20048;-49
2022/08/01 04:36:00;;;;;;;8.50;4.70;;;;;;;;;;4732996;30;20052;-51
2022/08/01 04:38:33;;;;;;;5.47;3.38;;;;;;;;;;4733021;30;20052;-52
2022/08/01 04:41:02;;;;;;;4.63;1.90;;;;;;;;;;4732930;30;20122;-47
2022/08/01 04:43:39;;;;;;;2.95;2.05;;;;;;;;;;4732975;30;20135;-51
2022/08/01 04:46:11;;;;;;;2.17;1.70;;;;;;;;;;4732691;30;20036;-48
2022/08/01 04:48:39;;;;;;;2.38;1.63;;;;;;;;;;4732558;30;20048;-47
2022/08/01 04:51:17;;;;;;;2.42;1.52;;;;;;;;;;4732614;30;20418;-53
2022/08/01 04:53:45;;;;;;;2.97;1.92;;;;;;;;;;4732906;30;20167;-46
2022/08/01 04:56:13;;;;;;;4.05;1.75;;;;;;;;;;4732749;30;20053;-49
2022/08/01 04:58:41;;;;;;;2.30;1.48;;;;;;;;;;4732709;30;20048;-50
2022/08/01 05:01:09;;;;;;;2.33;1.50;;;;;;;;;;4732577;30;20624;-48
2022/08/01 05:03:37;;;;;;;38.97;19.67;;;;;;;;;;4733259;30;20056;-48
2022/08/01 05:06:05;;;;;;;3.63;2.20;;;;;;;;;;4734223;30;20118;-46
2022/08/01 05:08:33;;;;;;;5.18;1.50;;;;;;;;;;4733888;30;20053;-49
2022/08/01 05:11:03;;;;;;;4.20;1.70;;;;;;;;;;4734068;30;20075;-50
2022/08/01 05:13:31;;;;;;;2.42;1.50;;;;;;;;;;4734142;30;20056;-49
2022/08/01 05:15:58;;;;;;;3.67;1.90;;;;;;;;;;4733451;30;20052;-49
2022/08/01 05:18:26;;;;;;;2.83;1.45;;;;;;;;;;4734142;30;20331;-47
2022/08/01 05:20:55;;;;;;;4.55;1.70;;;;;;;;;;4733908;30;20498;-49
2022/08/01 05:23:22;;;;;;;2.13;1.48;;;;;;;;;;4733721;30;20056;-51
2022/08/01 05:26:10;;;;;;;3.03;1.70;;;;;;;;;;4733703;30;20510;-61
2022/08/01 05:28:41;;;;;;;1.95;1.30;;;;;;;;;;4734066;30;20122;-46
2022/08/01 05:31:09;;;;;;;60.63;42.17;;;;;;;;;;4733879;30;20053;-48
2022/08/01 05:33:36;;;;;;;9.65;4.90;;;;;;;;;;4733399;30;20422;-45
2022/08/01 05:36:04;;;;;;;2.47;1.75;;;;;;;;;;4733828;30;20053;-53
2022/08/01 05:38:31;;;;;;;2.28;1.40;;;;;;;;;;4733740;30;20098;-51
2022/08/01 05:40:59;;;;;;;2.83;1.40;;;;;;;;;;4733315;30;20114;-46
2022/08/01 05:43:26;;;;;;;2.30;1.20;;;;;;;;;;4733666;30;20102;-49
2022/08/01 05:45:55;;;;;;;2.20;1.40;;;;;;;;;;4733571;30;20056;-56
2022/08/01 05:48:22;;;;;;;3.00;1.15;;;;;;;;;;4733741;30;20041;-50
2022/08/01 05:50:50;;;;;;;1.83;1.10;;;;;;;;;;4733576;30;20049;-49
2022/08/01 05:53:24;;;;;;;2.60;1.38;;;;;;;;;;4733457;30;20513;-51
2022/08/01 05:55:51;;;;;;;2.40;1.20;;;;;;;;;;4746997;30;20048;-49
2022/08/01 05:58:19;;;;;;;3.38;1.40;;;;;;;;;;4733291;30;20107;-48
2022/08/01 06:00:46;;;;;;;2.75;1.27;;;;;;;;;;4733736;30;20057;-51
2022/08/01 06:03:14;;;;;;;2.95;1.23;;;;;;;;;;4733576;30;20049;-47
2022/08/01 06:05:44;;;;;;;2.65;1.33;;;;;;;;;;4733605;30;20447;-50
2022/08/01 06:08:11;;;;;;;21.17;13.55;;;;;;;;;;4735495;30;20502;-52
2022/08/01 06:10:39;;;;;;;1.98;1.30;;;;;;;;;;4750934;30;20052;-49
2022/08/01 06:13:06;;;;;;;2.85;1.33;;;;;;;;;;4750987;30;20044;-49
2022/08/01 06:15:33;;;;;;;2.47;1.42;;;;;;;;;;4750840;30;20066;-50
2022/08/01 06:18:01;;;;;;;2.28;1.30;;;;;;;;;;4751024;30;20048;-47
2022/08/01 06:20:28;;;;;;;2.67;1.23;;;;;;;;;;4750862;30;20056;-53
2022/08/01 06:22:55;;;;;;;2.90;1.35;;;;;;;;;;4750918;30;20090;-50
2022/08/01 06:25:25;;;;;;;3.00;1.55;;;;;;;;;;4750460;30;20052;-48
2022/08/01 06:27:53;;;;;;;1.88;1.25;;;;;;;;;;4751472;30;20060;-50
2022/08/01 06:30:20;;;;;;;4.22;1.50;;;;;;;;;;4754299;30;20128;-57
2022/08/01 06:32:47;;;;;;;2.45;1.23;;;;;;;;;;4754173;30;20048;-52
2022/08/01 06:35:15;;;;;;;3.13;1.13;;;;;;;;;;4754045;30;20135;-47
2022/08/01 06:37:44;;;;;;;3.63;1.38;;;;;;;;;;4754067;30;20074;-50
2022/08/01 06:40:12;;;;;;;2.33;0.93;;;;;;;;;;4752773;30;20047;-52
2022/08/01 06:42:45;;;;;;;18.80;12.95;;;;;;;;;;4753547;30;20052;-59
2022/08/01 06:45:13;;;;;;;4.43;2.70;;;;;;;;;;4753899;30;20040;-50
2022/08/01 06:47:42;;;;;;;2.65;1.50;;;;;;;;;;4753307;30;20114;-52
2022/08/01 06:50:14;;;;;;;2.00;1.15;;;;;;;;;;4747523;30;20060;-54
2022/08/01 06:52:42;;;;;;;3.00;1.20;;;;;;;;;;4735605;30;20051;-53
2022/08/01 06:55:09;;;;;;;1.95;1.25;;;;;;;;;;4735986;30;20048;-56
2022/08/01 06:58:05;;;;;;;2.50;1.25;;;;;;;;;;4735803;30;20491;-50
2022/08/01 07:00:33;;;;;;;2.92;1.38;;;;;;;;;;4734942;30;20466;-53
2022/08/01 07:03:00;;;;;;;3.95;1.48;;;;;;;;;;4735897;30;20128;-54
2022/08/01 07:05:30;;;;;;;1.98;1.23;;;;;;;;;;4735820;30;20094;-52
2022/08/01 07:07:58;;;;;;;3.20;1.33;;;;;;;;;;4736412;30;20053;-55
2022/08/01 07:10:25;;;;;;;7.88;2.50;;;;;;;;;;4753195;30;20138;-51
2022/08/01 07:12:53;;;;;;;4.05;1.30;;;;;;;;;;4753308;30;20052;-52
2022/08/01 07:15:26;;;;;;;28.50;21.45;;;;;;;;;;4753307;30;20060;-53
2022/08/01 07:17:53;;;;;;;21.58;13.80;;;;;;;;;;4752941;30;20050;-47
2022/08/01 07:20:21;;;;;;;3.72;1.88;;;;;;;;;;4753426;30;20048;-50
2022/08/01 07:22:49;;;;;;;4.50;1.60;;;;;;;;;;4753132;30;20045;-50
2022/08/01 07:25:16;;;;;;;3.83;1.85;;;;;;;;;;4752833;30;20058;-51
2022/08/01 07:27:44;;;;;;;3.30;1.88;;;;;;;;;;4752944;30;20048;-51
2022/08/01 07:30:12;;;;;;;4.43;1.75;;;;;;;;;;4753151;30;20129;-52
2022/08/01 07:32:40;;;;;;;3.25;1.70;;;;;;;;;;4753123;30;20048;-51
2022/08/01 07:35:08;;;;;;;5.25;1.67;;;;;;;;;;4753190;30;20079;-51
2022/08/01 07:37:36;;;;;;;5.20;1.90;;;;;;;;;;4753111;30;20386;-52
2022/08/01 07:40:16;;;;;;;4.00;1.58;;;;;;;;;;4751690;30;20052;-52
2022/08/01 07:42:44;;;;;;;3.70;1.50;;;;;;;;;;4752969;30;20115;-53
2022/08/01 07:45:13;;;;;;;3.17;1.52;;;;;;;;;;4752678;30;20060;-51
2022/08/01 07:47:40;;;;;;;6.57;3.17;;;;;;;;;;4752963;30;20053;-59
2022/08/01 07:50:08;;;;;;;7.18;2.13;;;;;;;;;;4734654;30;20470;-52
2022/08/01 07:52:35;;;;;;;5.50;1.90;;;;;;;;;;4734894;30;20102;-55
2022/08/01 07:55:03;;;;;;;3.00;1.60;;;;;;;;;;4734349;30;20110;-54
2022/08/01 07:57:31;;;;;;;4.68;1.70;;;;;;;;;;4731755;30;20080;-51
2022/08/01 07:59:58;;;;;;;3.30;1.45;;;;;;;;;;4734366;30;20056;-52
2022/08/01 08:02:29;;;;;;;3.08;1.60;;;;;;;;;;4729913;30;20072;-52
2022/08/01 08:04:57;;;;;;;5.47;1.77;;;;;;;;;;4725747;30;20155;-52
2022/08/01 08:07:27;;;;;;;4.55;2.03;;;;;;;;;;4734392;30;20044;-51
2022/08/01 08:09:55;;;;;;;6.15;2.25;;;;;;;;;;4735068;30;20055;-48
2022/08/01 08:12:22;;;;;;;3.78;1.45;;;;;;;;;;4734154;30;20056;-53
2022/08/01 08:14:58;;;;;;;4.20;1.60;;;;;;;;;;4734478;30;20065;-48
2022/08/01 08:17:25;;;;;;;4.55;2.50;;;;;;;;;;4734747;30;20410;-53
2022/08/01 08:19:52;;;;;;;3.45;1.67;;;;;;;;;;4734858;30;20083;-54
2022/08/01 08:22:20;;;;;;;4.05;1.70;;;;;;;;;;4734721;30;20053;-51
2022/08/01 08:24:47;;;;;;;4.38;1.75;;;;;;;;;;4734483;30;20506;-52
2022/08/01 08:27:15;;;;;;;3.42;1.80;;;;;;;;;;4734702;30;20079;-52
2022/08/01 08:29:42;;;;;;;3.83;1.70;;;;;;;;;;4734604;30;20049;-49
2022/08/01 08:32:11;;;;;;;3.20;1.75;;;;;;;;;;4734655;30;20041;-52
2022/08/01 08:34:38;;;;;;;4.07;1.50;;;;;;;;;;4734583;30;20049;-52
2022/08/01 08:37:06;;;;;;;3.20;1.40;;;;;;;;;;4734684;30;20474;-52
2022/08/01 08:39:35;;;;;;;4.43;1.23;;;;;;;;;;4734464;30;20049;-52
2022/08/01 08:42:08;;;;;;;;;;;;;;;;;;4748330;30;20506;-49
2022/08/01 08:44:40;;;;;;;6.57;1.90;;;;;;;;;;4734383;30;19943;-52
2022/08/01 08:47:15;;;;;;;3.22;1.73;;;;;;;;;;4734452;30;20059;-50
2022/08/01 08:49:48;;;;;;;7.20;1.90;;;;;;;;;;4747933;30;20586;-57
2022/08/01 08:52:18;;;;;;;4.00;1.50;;;;;;;;;;4747619;30;20055;-52
2022/08/01 08:54:47;;;;;;;6.13;3.20;;;;;;;;;;4747644;30;20533;-50
2022/08/01 08:57:15;;;;;;;9.20;4.97;;;;;;;;;;4734217;30;20074;-54
2022/08/01 08:59:46;;;;;;;5.63;2.08;;;;;;;;;;4733955;30;20080;-50
2022/08/01 09:02:14;;;;;;;4.28;1.60;;;;;;;;;;4733877;30;20048;-49
2022/08/01 09:04:42;;;;;;;2.55;1.40;;;;;;;;;;4734025;30;20055;-53
2022/08/01 09:07:11;;;;;;;10.63;1.85;;;;;;;;;;4734244;30;20051;-48
2022/08/01 09:09:38;;;;;;;2.97;1.42;;;;;;;;;;4738866;30;20572;-50
2022/08/01 09:12:08;;;;;;;4.95;1.40;;;;;;;;;;4734305;30;20052;-54
2022/08/01 09:14:46;;;;;;;3.25;1.55;;;;;;;;;;4733790;30;20055;-49
2022/08/01 09:17:13;;;;;;;4.30;1.40;;;;;;;;;;4734080;30;20048;-50
2022/08/01 09:19:53;;;;;;;5.22;2.72;;;;;;;;;;4733927;30;20577;-50
2022/08/01 09:22:23;;;;;;;4.00;1.58;;;;;;;;;;4734005;30;20052;-52
2022/08/01 09:25:03;;;;;;;5.13;1.70;;;;;;;;;;4733804;30;20053;-57
2022/08/01 09:27:31;;;;;;;5.00;1.60;;;;;;;;;;4733855;30;20044;-52
2022/08/01 09:30:18;;;;;;;5.68;1.60;;;;;;;;;;4733709;30;20143;-53
2022/08/01 09:33:00;;;;;;;3.22;1.20;;;;;;;;;;4732530;30;20391;-52
2022/08/01 09:35:53;;;;;;;4.30;1.45;;;;;;;;;;4731978;30;20140;-49
2022/08/01 09:38:22;;;;;;;5.63;1.77;;;;;;;;;;4732034;30;20405;-49
2022/08/01 09:40:55;;;;;;;3.15;1.60;;;;;;;;;;4744702;30;20061;-53
2022/08/01 09:43:28;;;;;;;3.30;1.67;;;;;;;;;;4732221;30;20106;-51
2022/08/01 09:46:00;;;;;;;;;;;;;;;;;;4733252;30;20137;-49
2022/08/01 09:48:28;;;;;;;3.45;1.52;;;;;;;;;;4734344;30;19933;-51
2022/08/01 09:50:58;;;;;;;5.30;1.85;;;;;;;;;;4733262;30;20533;-52
2022/08/01 09:53:42;;;;;;;5.85;1.77;;;;;;;;;;4733474;30;20079;-51
2022/08/01 09:56:17;;;;;;;3.10;1.42;;;;;;;;;;4733741;30;20145;-51
2022/08/01 09:58:57;;;;;;;5.00;1.50;;;;;;;;;;4733533;30;20502;-49
2022/08/01 10:01:46;;;;;;;;;;;;;;;;;;4734024;30;20131;-50
2022/08/01 10:04:21;;;;;;;4.13;1.48;;;;;;;;;;4736251;30;19927;-51
2022/08/01 10:06:53;;;;;;;3.00;1.40;;;;;;;;;;4736870;30;20060;-52
2022/08/01 10:09:31;;;;;;;3.40;1.50;;;;;;;;;;4736511;30;20083;-52
2022/08/01 10:12:07;;;;;;;3.55;1.25;;;;;;;;;;4734920;30;20052;-57
2022/08/01 10:14:43;;;;;;;4.63;1.50;;;;;;;;;;4731534;30;20118;-52
2022/08/01 10:17:15;;;;;;;2.78;1.42;;;;;;;;;;4737079;30;20548;-53
2022/08/01 10:19:46;;;;;;;;;;;;;;;;;;4737271;30;20048;-51
2022/08/01 10:22:17;;;;;;;3.13;1.40;;;;;;;;;;4750164;30;20315;-49
2022/08/01 10:24:47;;;;;;;4.47;1.55;;;;;;;;;;4736547;30;20402;-53
2022/08/01 10:27:18;;;;;;;3.30;1.50;;;;;;;;;;4736078;30;20056;-52
2022/08/01 10:30:05;;;;;;;7.68;5.10;;;;;;;;;;4736703;30;20049;-52
2022/08/01 10:32:47;;;;;;;;;;;;;;;;;;4736893;30;20053;-57
2022/08/01 10:35:17;;;;;;;4.10;1.30;;;;;;;;;;4736664;30;19962;-51
2022/08/01 10:38:07;;;;;;;2.85;1.20;;;;;;;;;;4736579;30;20075;-50
2022/08/01 10:40:42;;;;;;;7.65;1.38;;;;;;;;;;4736368;30;20045;-51
2022/08/01 10:43:10;;;;;;;4.45;1.48;;;;;;;;;;4736060;30;20056;-53
2022/08/01 10:45:39;;;;;;;6.45;1.67;;;;;;;;;;4736377;30;20406;-52
2022/08/01 10:48:16;;;;;;;2.67;1.48;;;;;;;;;;4736350;30;20059;-50
2022/08/01 10:50:52;;;;;;;3.10;1.40;;;;;;;;;;4736152;30;20087;-49
2022/08/01 10:53:22;;;;;;;3.13;1.70;;;;;;;;;;4736285;30;20132;-51
2022/08/01 10:56:00;;;;;;;3.42;1.42;;;;;;;;;;4736166;30;20049;-57
2022/08/01 10:58:38;;;;;;;2.70;1.30;;;;;;;;;;4736294;30;20101;-52
2022/08/01 11:01:28;;;;;;;2.22;1.00;;;;;;;;;;4736337;30;20139;-52
2022/08/01 11:04:00;;;;;;;3.08;1.52;;;;;;;;;;4735835;30;20143;-52
2022/08/01 11:06:34;;;;;;;2.85;1.45;;;;;;;;;;4735976;30;20439;-52
2022/08/01 11:09:05;;;;;;;2.65;1.35;;;;;;;;;;4744080;30;20459;-54
2022/08/01 11:12:19;;;;;;;3.97;1.52;;;;;;;;;;4738116;30;20470;-57
2022/08/01 11:15:00;;;;;;;2.72;1.27;;;;;;;;;;4733416;30;20056;-50
2022/08/01 11:17:41;;;;;;;6.30;3.03;;;;;;;;;;4735930;30;20063;-47
2022/08/01 11:20:09;;;;;;;9.50;6.60;;;;;;;;;;4735936;30;20057;-52
2022/08/01 11:23:01;;;;;;;3.00;1.50;;;;;;;;;;4735593;30;20524;-50
2022/08/01 11:25:35;;;;;;;3.25;1.23;;;;;;;;;;4735373;30;20556;-51
2022/08/01 11:28:27;;;;;;;5.22;1.52;;;;;;;;;;4735837;30;20076;-49
2022/08/01 11:31:07;;;;;;;2.75;1.20;;;;;;;;;;4735277;30;20048;-57
2022/08/01 11:33:49;;;;;;;7.05;1.33;;;;;;;;;;4735613;30;20053;-51
2022/08/01 11:36:19;;;;;;;4.40;1.20;;;;;;;;;;4735772;30;20084;-50
2022/08/01 11:39:07;;;;;;;2.75;1.30;;;;;;;;;;4735528;30;20048;-50
2022/08/01 11:41:41;;;;;;;5.93;1.23;;;;;;;;;;4735378;30;20072;-51
2022/08/01 11:44:25;;;;;;;3.22;1.20;;;;;;;;;;4735408;30;20544;-57
2022/08/01 11:47:07;;;;;;;2.15;1.20;;;;;;;;;;4735211;30;20049;-48
2022/08/01 11:49:36;;;;;;;4.93;1.13;;;;;;;;;;4735145;30;20053;-50
2022/08/01 11:52:07;;;;;;;2.58;1.08;;;;;;;;;;4735362;30;20131;-50
2022/08/01 11:54:40;;;;;;;3.13;1.10;;;;;;;;;;4735020;30;20053;-52
2022/08/01 11:57:21;;;;;;;2.10;0.85;;;;;;;;;;4735078;30;20045;-51
2022/08/01 11:59:54;;;;;;;43.97;35.97;;;;;;;;;;4734328;30;20103;-51
2022/08/01 12:02:39;;;;;;;25.25;14.38;;;;;;;;;;4735115;30;20047;-52
2022/08/01 12:05:09;;;;;;;4.97;1.83;;;;;;;;;;4734933;30;20049;-51
2022/08/01 12:07:41;;;;;;;4.07;1.75;;;;;;;;;;4734751;30;20048;-52
2022/08/01 12:10:14;;;;;;;3.25;1.05;;;;;;;;;;4751525;30;20041;-48
2022/08/01 12:12:51;;;;;;;2.42;1.10;;;;;;;;;;4752321;30;20139;-49
2022/08/01 12:15:22;;;;;;;3.85;1.30;;;;;;;;;;4752604;30;20071;-47
2022/08/01 12:17:57;;;;;;;3.13;1.10;;;;;;;;;;4752803;30;20509;-46
2022/08/01 12:20:32;;;;;;;2.10;1.10;;;;;;;;;;4752586;30;20056;-51
2022/08/01 12:23:05;;;;;;;2.17;1.00;;;;;;;;;;4752265;30;20055;-50
2022/08/01 12:25:34;;;;;;;4.75;1.05;;;;;;;;;;4751553;30;20087;-50
2022/08/01 12:28:04;;;;;;;2.60;1.00;;;;;;;;;;4752080;30;20059;-47
2022/08/01 12:30:36;;;;;;;3.67;1.10;;;;;;;;;;4752228;30;20138;-50
2022/08/01 12:33:05;;;;;;;4.30;1.15;;;;;;;;;;4752039;30;20044;-51
2022/08/01 12:35:34;;;;;;;3.92;1.05;;;;;;;;;;4750986;30;20122;-46
2022/08/01 12:38:15;;;;;;;2.67;0.90;;;;;;;;;;4752074;30;20111;-58
2022/08/01 12:40:46;;;;;;;4.78;1.45;;;;;;;;;;4752004;30;20052;-51
2022/08/01 12:43:20;;;;;;;2.03;1.00;;;;;;;;;;4752181;30;20414;-50
2022/08/01 12:45:54;;;;;;;1.30;0.93;;;;;;;;;;4751996;30;20525;-48
2022/08/01 12:48:24;;;;;;;3.00;1.10;;;;;;;;;;4751959;30;20118;-50
2022/08/01 12:50:52;;;;;;;5.22;1.45;;;;;;;;;;4752045;30;20096;-49
2022/08/01 12:53:20;;;;;;;3.25;1.30;;;;;;;;;;4752168;30;20067;-51
2022/08/01 12:55:57;;;;;;;2.17;1.08;;;;;;;;;;4750646;30;20052;-51
2022/08/01 12:58:33;;;;;;;3.20;1.20;;;;;;;;;;4750320;30;20082;-49
2022/08/01 13:01:11;;;;;;;2.95;1.10;;;;;;;;;;4751758;30;20080;-47
2022/08/01 13:03:39;;;;;;;2.40;1.08;;;;;;;;;;4751860;30;20048;-52
2022/08/01 13:06:14;;;;;;;4.60;1.20;;;;;;;;;;4751802;30;20127;-49
2022/08/01 13:08:44;;;;;;;1.73;1.10;;;;;;;;;;4745270;30;20053;-49
2022/08/01 13:11:14;;;;;;;2.90;0.95;;;;;;;;;;4733726;30;20071;-51
2022/08/01 13:13:48;;;;;;;3.90;1.13;;;;;;;;;;4733881;30;20412;-51
2022/08/01 13:16:23;;;;;;;2.17;1.10;;;;;;;;;;4733842;30;20060;-49
2022/08/01 13:19:07;;;;;;;2.45;1.20;;;;;;;;;;4734071;30;20126;-47
2022/08/01 13:21:35;;;;;;;2.17;1.05;;;;;;;;;;4733878;30;20059;-50
2022/08/01 13:24:28;;;;;;;2.85;1.05;;;;;;;;;;4734177;30;20052;-71
2022/08/01 13:26:59;;;;;;;2.38;1.02;;;;;;;;;;4732423;30;20053;-52
2022/08/01 13:29:41;;;;;;;1.35;1.00;;;;;;;;;;4733686;30;20045;-51
2022/08/01 13:32:16;;;;;;;3.85;1.23;;;;;;;;;;4733661;30;20087;-54
2022/08/01 13:35:20;;;;;;;1.65;0.88;;;;;;;;;;4729278;30;20414;-56
2022/08/01 13:37:48;;;;;;;5.72;1.20;;;;;;;;;;4732958;30;20522;-56
2022/08/01 13:40:24;;;;;;;4.47;0.98;;;;;;;;;;4733765;30;20506;-57
2022/08/01 13:42:55;;;;;;;2.05;1.15;;;;;;;;;;4733490;30;20049;-57
2022/08/01 13:45:23;;;;;;;2.22;1.10;;;;;;;;;;4747368;30;20048;-55
2022/08/01 13:47:52;;;;;;;2.25;1.13;;;;;;;;;;4733991;30;20041;-62
2022/08/01 13:50:39;;;;;;;3.75;1.70;;;;;;;;;;4732278;30;20044;-59
2022/08/01 13:53:07;;;;;;;8.77;5.72;;;;;;;;;;4733566;30;20589;-57
2022/08/01 13:55:34;;;;;;;3.13;1.30;;;;;;;;;;4733530;30;20049;-52
2022/08/01 13:58:02;;;;;;;2.25;0.77;;;;;;;;;;4733552;30;20048;-55
2022/08/01 14:00:30;;;;;;;4.88;1.08;;;;;;;;;;4730848;30;20048;-56
2022/08/01 14:02:57;;;;;;;3.03;1.13;;;;;;;;;;4730772;30;20049;-56
2022/08/01 14:05:24;;;;;;;2.20;1.10;;;;;;;;;;4732827;30;20048;-59
2022/08/01 14:07:51;;;;;;;2.47;0.90;;;;;;;;;;4730488;30;20414;-54
2022/08/01 14:10:24;;;;;;;1.80;0.82;;;;;;;;;;4745053;30;20083;-55
2022/08/01 14:12:51;;;;;;;1.92;0.77;;;;;;;;;;4733344;30;20052;-51
2022/08/01 14:15:23;;;;;;;1.42;0.77;;;;;;;;;;4733205;30;20060;-54
2022/08/01 14:18:05;;;;;;;3.25;0.73;;;;;;;;;;4733403;30;20053;-50
2022/08/01 14:20:34;;;;;;;2.53;1.02;;;;;;;;;;4733433;30;20041;-52
2022/08/01 14:23:02;;;;;;;1.20;0.80;;;;;;;;;;4733307;30;20049;-51
2022/08/01 14:25:35;;;;;;;2.35;1.05;;;;;;;;;;4733336;30;20113;-54
2022/08/01 14:28:24;;;;;;;1.35;0.90;;;;;;;;;;4733042;30;20045;-56
2022/08/01 14:30:51;;;;;;;1.15;0.77;;;;;;;;;;4733490;30;20079;-53
2022/08/01 14:33:18;;;;;;;1.85;0.80;;;;;;;;;;4732389;30;20089;-49
2022/08/01 14:35:45;;;;;;;2.15;0.88;;;;;;;;;;4733349;30;20048;-53
2022/08/01 14:38:33;;;;;;;2.67;1.05;;;;;;;;;;4733136;30;20469;-53
2022/08/01 14:41:03;;;;;;;2.25;1.10;;;;;;;;;;4746360;30;20463;-49
2022/08/01 14:43:32;;;;;;;5.65;1.27;;;;;;;;;;4733226;30;20131;-46
2022/08/01 14:46:01;;;;;;;6.70;1.65;;;;;;;;;;4733266;30;20417;-51
2022/08/01 14:48:28;;;;;;;2.33;1.02;;;;;;;;;;4733150;30;20110;-52
2022/08/01 14:50:57;;;;;;;1.65;0.90;;;;;;;;;;4736396;30;20485;-51
2022/08/01 14:53:24;;;;;;;2.10;0.82;;;;;;;;;;4736395;30;20044;-49
2022/08/01 14:55:52;;;;;;;4.78;0.95;;;;;;;;;;4735969;30;20052;-51
2022/08/01 14:58:19;;;;;;;3.15;0.98;;;;;;;;;;4736310;30;20059;-52
2022/08/01 15:00:46;;;;;;;1.85;0.90;;;;;;;;;;4736087;30;20051;-47
2022/08/01 15:03:14;;;;;;;3.55;1.30;;;;;;;;;;4735057;30;20413;-47
2022/08/01 15:05:41;;;;;;;2.05;1.05;;;;;;;;;;4735761;30;20052;-49
2022/08/01 15:08:08;;;;;;;2.35;1.10;;;;;;;;;;4737761;30;20515;-49
2022/08/01 15:10:35;;;;;;;4.20;1.30;;;;;;;;;;4753538;30;20044;-48